Time;durP1;ratioP1;P1;durP2;ratioP2;P2;SDS_P1;SDS_P2;PMS_P1;PMS_P2;Temp;Humidity;BMP_temperature;BMP_pressure;BME280_temperature;BME280_humidity;BME280_pressure;Samples;Min_cycle;Max_cycle;Signal;HPM_P1;HPM_P2
2023/12/15 00:01:19;;;;;;;17.90;8.40;;;7.40;99.90;;;;;;5091815;28;20028;-66
2023/12/15 00:03:45;;;;;;;19.17;7.93;;;7.40;99.90;;;;;;5092028;28;20074;-66
2023/12/15 00:06:10;;;;;;;14.63;7.85;;;7.40;99.90;;;;;;5092045;28;20027;-66
2023/12/15 00:08:36;;;;;;;16.98;7.47;;;7.40;99.90;;;;;;5091949;28;20082;-65
2023/12/15 00:11:01;;;;;;;19.95;9.13;;;7.50;99.90;;;;;;5091994;28;20024;-66
2023/12/15 00:13:27;;;;;;;17.35;8.38;;;7.50;99.90;;;;;;5091962;28;20028;-66
2023/12/15 00:15:53;;;;;;;17.35;7.72;;;7.50;99.90;;;;;;5090856;28;20055;-66
2023/12/15 00:18:20;;;;;;;20.05;8.05;;;7.60;99.90;;;;;;5091860;28;20049;-65
2023/12/15 00:20:46;;;;;;;15.82;7.63;;;7.50;99.90;;;;;;5091773;28;20012;-66
2023/12/15 00:23:13;;;;;;;18.23;8.18;;;7.50;99.90;;;;;;5091948;28;20020;-66
2023/12/15 00:25:38;;;;;;;15.07;8.15;;;7.50;99.90;;;;;;5091844;28;20033;-66
2023/12/15 00:28:04;;;;;;;17.00;8.40;;;7.50;99.90;;;;;;5091819;28;20025;-65
2023/12/15 00:30:30;;;;;;;18.58;8.68;;;7.60;99.90;;;;;;5091568;28;20078;-65
2023/12/15 00:32:55;;;;;;;15.50;9.00;;;7.60;99.90;;;;;;5091712;28;20086;-65
2023/12/15 00:35:21;;;;;;;17.58;8.27;;;7.60;99.90;;;;;;5091642;28;20024;-66
2023/12/15 00:37:46;;;;;;;18.13;8.40;;;7.60;99.90;;;;;;5091587;28;20055;-66
2023/12/15 00:40:12;;;;;;;17.50;8.63;;;7.60;99.90;;;;;;5091596;28;20036;-66
2023/12/15 00:42:38;;;;;;;20.15;9.68;;;7.60;99.90;;;;;;5091805;28;20210;-66
2023/12/15 00:45:04;;;;;;;20.60;8.82;;;7.60;99.90;;;;;;5095307;28;20060;-66
2023/12/15 00:47:29;;;;;;;17.58;8.50;;;7.60;99.90;;;;;;5095409;28;20032;-65
2023/12/15 00:49:55;;;;;;;19.98;8.45;;;7.60;99.90;;;;;;5095274;28;20029;-65
2023/12/15 00:52:21;;;;;;;18.83;7.82;;;7.60;99.90;;;;;;5095164;28;20043;-65
2023/12/15 00:54:46;;;;;;;15.43;8.15;;;7.60;99.90;;;;;;5095173;28;20025;-65
2023/12/15 00:57:12;;;;;;;19.13;9.75;;;7.60;99.90;;;;;;5094196;28;20051;-66
2023/12/15 00:59:38;;;;;;;16.20;8.15;;;7.70;99.90;;;;;;5094864;28;20031;-66
2023/12/15 01:02:05;;;;;;;19.13;9.13;;;7.60;99.90;;;;;;5094976;28;20028;-65
2023/12/15 01:04:31;;;;;;;17.15;8.23;;;7.70;99.90;;;;;;5095050;28;20031;-66
2023/12/15 01:06:57;;;;;;;18.50;9.02;;;7.60;99.90;;;;;;5094984;28;20029;-66
2023/12/15 01:09:23;;;;;;;19.23;8.77;;;7.60;99.90;;;;;;5094933;28;20080;-66
2023/12/15 01:11:50;;;;;;;18.85;9.20;;;7.70;99.90;;;;;;5094895;28;20039;-66
2023/12/15 01:14:15;;;;;;;25.80;10.13;;;7.70;99.90;;;;;;5094840;28;20028;-66
2023/12/15 01:16:46;;;;;;;19.40;8.35;;;7.80;99.90;;;;;;5094794;28;20124;-66
2023/12/15 01:19:12;;;;;;;19.92;8.98;;;7.80;99.90;;;;;;5094769;28;20020;-66
2023/12/15 01:21:37;;;;;;;22.85;9.75;;;7.80;99.90;;;;;;5094560;28;20043;-66
2023/12/15 01:24:03;;;;;;;24.05;10.60;;;7.80;99.90;;;;;;5094688;28;20037;-66
2023/12/15 01:26:29;;;;;;;22.55;10.02;;;7.80;99.90;;;;;;5094648;28;20033;-66
2023/12/15 01:28:55;;;;;;;22.08;10.02;;;7.80;99.90;;;;;;5094745;28;20035;-66
2023/12/15 01:31:20;;;;;;;21.90;10.68;;;7.80;99.90;;;;;;5094442;28;20025;-65
2023/12/15 01:33:46;;;;;;;27.70;10.55;;;7.80;99.90;;;;;;5094476;28;20043;-65
2023/12/15 01:36:11;;;;;;;24.92;10.18;;;7.70;99.90;;;;;;5094399;28;20025;-65
2023/12/15 01:38:37;;;;;;;23.67;10.98;;;7.70;99.90;;;;;;5094409;28;20029;-66
2023/12/15 01:41:03;;;;;;;20.58;10.43;;;7.70;99.90;;;;;;5094290;28;20032;-65
2023/12/15 01:43:29;;;;;;;27.13;11.40;;;7.80;99.90;;;;;;5094274;28;20058;-65
2023/12/15 01:45:55;;;;;;;30.92;10.82;;;7.80;99.90;;;;;;5094077;28;20056;-65
2023/12/15 01:48:21;;;;;;;22.40;9.70;;;7.80;99.90;;;;;;5094166;28;20041;-65
2023/12/15 01:50:47;;;;;;;29.98;12.05;;;7.80;99.90;;;;;;5094114;28;20056;-65
2023/12/15 01:53:12;;;;;;;26.45;10.98;;;7.80;99.90;;;;;;5094150;28;20055;-65
2023/12/15 01:55:38;;;;;;;24.90;10.43;;;7.80;99.90;;;;;;5093448;28;20035;-65
2023/12/15 01:58:04;;;;;;;24.85;10.98;;;7.80;99.90;;;;;;5094026;28;20029;-65
2023/12/15 02:00:29;;;;;;;27.30;10.93;;;7.80;99.90;;;;;;5093776;28;20024;-65
2023/12/15 02:02:55;;;;;;;26.65;11.15;;;7.80;99.90;;;;;;5093868;28;20032;-65
2023/12/15 02:05:20;;;;;;;27.83;11.80;;;7.80;99.90;;;;;;5093929;28;20142;-65
2023/12/15 02:07:46;;;;;;;26.75;11.25;;;7.80;99.90;;;;;;5093794;28;20021;-64
2023/12/15 02:10:12;;;;;;;27.90;12.05;;;7.80;99.90;;;;;;5093792;28;20049;-65
2023/12/15 02:12:37;;;;;;;25.00;11.13;;;7.80;99.90;;;;;;5093749;28;20036;-65
2023/12/15 02:15:03;;;;;;;28.75;11.40;;;7.80;99.90;;;;;;5093692;28;20029;-65
2023/12/15 02:17:29;;;;;;;25.42;11.27;;;7.80;99.90;;;;;;5093574;28;20728;-65
2023/12/15 02:19:54;;;;;;;24.02;10.75;;;7.80;99.90;;;;;;5093414;28;20021;-65
2023/12/15 02:22:26;;;;;;;24.70;10.77;;;7.90;99.90;;;;;;5093478;28;20024;-65
2023/12/15 02:24:52;;;;;;;27.42;10.85;;;7.90;99.90;;;;;;5093564;28;20025;-65
2023/12/15 02:27:18;;;;;;;30.25;12.07;;;7.90;99.90;;;;;;5092368;28;20039;-65
2023/12/15 02:29:43;;;;;;;28.35;12.30;;;7.90;99.90;;;;;;5093202;28;20036;-66
2023/12/15 02:32:09;;;;;;;27.40;11.93;;;7.90;99.90;;;;;;5093340;28;20029;-65
2023/12/15 02:34:35;;;;;;;33.10;13.15;;;7.90;99.90;;;;;;5093151;28;20111;-64
2023/12/15 02:37:01;;;;;;;29.25;12.40;;;7.90;99.90;;;;;;5093255;28;20035;-66
2023/12/15 02:39:27;;;;;;;33.05;12.98;;;7.90;99.90;;;;;;5093176;28;20029;-65
2023/12/15 02:41:52;;;;;;;26.30;11.93;;;7.80;99.90;;;;;;5093105;28;20039;-65
2023/12/15 02:44:18;;;;;;;31.10;12.65;;;7.90;99.90;;;;;;5092933;28;20060;-65
2023/12/15 02:46:43;;;;;;;29.85;12.32;;;7.80;99.90;;;;;;5091937;28;20032;-65
2023/12/15 02:49:09;;;;;;;26.98;11.40;;;7.80;99.90;;;;;;5092939;28;20036;-65
2023/12/15 02:51:35;;;;;;;29.23;11.85;;;7.80;99.90;;;;;;5092904;28;20025;-65
2023/12/15 02:54:01;;;;;;;28.92;11.02;;;7.90;99.90;;;;;;5092966;28;20028;-65
2023/12/15 02:56:27;;;;;;;31.98;13.82;;;7.90;99.90;;;;;;5092960;28;20052;-65
2023/12/15 02:58:54;;;;;;;32.63;13.05;;;7.90;99.90;;;;;;5092803;28;20025;-65
2023/12/15 03:01:19;;;;;;;30.00;11.48;;;7.90;99.90;;;;;;5092494;28;20043;-65
2023/12/15 03:03:45;;;;;;;30.23;12.15;;;7.90;99.90;;;;;;5092612;28;20029;-65
2023/12/15 03:06:11;;;;;;;29.85;12.20;;;7.90;99.90;;;;;;5092219;28;20040;-65
2023/12/15 03:08:36;;;;;;;30.25;13.00;;;7.90;99.90;;;;;;5092308;28;20025;-65
2023/12/15 03:11:02;;;;;;;35.08;13.50;;;7.90;99.90;;;;;;5092630;28;20025;-65
2023/12/15 03:13:29;;;;;;;36.30;12.68;;;7.90;99.90;;;;;;5092576;28;20088;-66
2023/12/15 03:16:04;;;;;;;32.20;13.02;;;7.90;99.90;;;;;;5092464;28;20040;-66
2023/12/15 03:18:30;;;;;;;37.47;13.43;;;7.90;99.90;;;;;;5092527;28;20029;-65
2023/12/15 03:20:55;;;;;;;32.15;12.82;;;7.90;99.90;;;;;;5092497;28;20024;-66
2023/12/15 03:23:21;;;;;;;36.50;13.30;;;7.90;99.90;;;;;;5092434;28;20055;-66
2023/12/15 03:25:47;;;;;;;30.85;12.18;;;7.80;99.90;;;;;;5092425;28;20052;-65
2023/12/15 03:28:12;;;;;;;30.23;12.25;;;7.80;99.90;;;;;;5092369;28;20032;-65
2023/12/15 03:30:38;;;;;;;32.75;12.13;;;7.90;99.90;;;;;;5092279;28;20043;-66
2023/12/15 03:33:03;;;;;;;34.00;12.60;;;7.80;99.90;;;;;;5092267;28;20032;-66
2023/12/15 03:35:29;;;;;;;33.80;12.98;;;7.80;99.90;;;;;;5092252;28;20043;-66
2023/12/15 03:37:55;;;;;;;33.58;13.63;;;7.80;99.90;;;;;;5092308;28;20028;-66
2023/12/15 03:40:20;;;;;;;40.20;13.98;;;7.90;99.90;;;;;;5092324;28;20356;-66
2023/12/15 03:42:46;;;;;;;31.33;11.80;;;7.90;99.90;;;;;;5092194;28;20029;-66
2023/12/15 03:45:12;;;;;;;30.95;12.73;;;7.90;99.90;;;;;;5092115;28;20056;-66
2023/12/15 03:47:37;;;;;;;34.95;13.13;;;7.90;99.90;;;;;;5092159;28;20100;-66
2023/12/15 03:50:03;;;;;;;32.92;12.65;;;8.00;99.90;;;;;;5092245;28;20029;-66
2023/12/15 03:52:30;;;;;;;32.33;12.93;;;8.00;99.90;;;;;;5092177;28;20032;-66
2023/12/15 03:54:56;;;;;;;37.25;12.43;;;8.00;99.90;;;;;;5092093;28;20047;-66
2023/12/15 03:57:22;;;;;;;40.72;13.55;;;8.00;99.90;;;;;;5092059;28;20021;-65
2023/12/15 03:59:47;;;;;;;35.53;13.25;;;8.00;99.90;;;;;;5091906;28;20043;-66
2023/12/15 04:02:15;;;;;;;35.35;12.73;;;8.00;99.90;;;;;;5091901;28;20028;-66
2023/12/15 04:04:43;;;;;;;41.13;13.60;;;8.00;99.90;;;;;;5092074;28;20021;-65
2023/12/15 04:07:09;;;;;;;42.47;14.60;;;8.00;99.90;;;;;;5091955;28;20043;-66
2023/12/15 04:09:35;;;;;;;38.38;13.32;;;8.00;99.90;;;;;;5090945;28;20047;-66
2023/12/15 04:12:00;;;;;;;33.83;13.20;;;8.00;99.90;;;;;;5090909;28;20040;-66
2023/12/15 04:14:26;;;;;;;38.33;13.85;;;8.00;99.90;;;;;;5091775;28;20032;-66
2023/12/15 04:16:52;;;;;;;37.53;13.75;;;8.00;99.90;;;;;;5091772;28;20082;-66
2023/12/15 04:19:18;;;;;;;48.63;13.77;;;8.00;99.90;;;;;;5094859;28;20035;-66
2023/12/15 04:21:43;;;;;;;43.28;13.38;;;8.00;99.90;;;;;;5095805;28;20013;-66
2023/12/15 04:24:09;;;;;;;38.08;13.30;;;8.00;99.90;;;;;;5095821;28;20484;-66
2023/12/15 04:26:35;;;;;;;43.85;14.23;;;8.00;99.90;;;;;;5095803;28;20025;-66
2023/12/15 04:29:00;;;;;;;33.80;11.70;;;8.00;99.90;;;;;;5095688;28;20094;-66
2023/12/15 04:31:26;;;;;;;42.78;13.98;;;8.00;99.90;;;;;;5095433;28;20048;-66
2023/12/15 04:33:52;;;;;;;44.42;13.40;;;7.90;99.90;;;;;;5095571;28;20039;-66
2023/12/15 04:36:21;;;;;;;43.35;14.75;;;7.90;99.90;;;;;;5095558;28;20032;-66
2023/12/15 04:38:47;;;;;;;48.05;15.10;;;7.90;99.90;;;;;;5095496;28;20092;-66
2023/12/15 04:41:18;;;;;;;48.08;15.07;;;8.00;99.90;;;;;;5095540;28;20021;-65
2023/12/15 04:43:45;;;;;;;44.20;15.73;;;8.00;99.90;;;;;;5095441;28;20020;-66
2023/12/15 04:46:10;;;;;;;45.97;14.93;;;8.00;99.90;;;;;;5095086;28;20286;-66
2023/12/15 04:48:36;;;;;;;43.17;13.93;;;8.00;99.90;;;;;;5095267;28;20084;-66
2023/12/15 04:51:02;;;;;;;46.63;15.10;;;8.00;99.90;;;;;;5095276;28;20029;-66
2023/12/15 04:53:27;;;;;;;42.83;15.80;;;8.00;99.90;;;;;;5095169;28;20024;-67
2023/12/15 04:55:53;;;;;;;51.80;16.63;;;8.10;99.90;;;;;;5095085;28;20037;-67
2023/12/15 04:58:18;;;;;;;48.95;14.57;;;8.10;99.90;;;;;;5095049;28;20041;-67
2023/12/15 05:00:45;;;;;;;44.15;15.70;;;8.10;99.90;;;;;;5094923;28;20036;-66
2023/12/15 05:03:10;;;;;;;50.22;14.40;;;8.00;99.90;;;;;;5095085;28;20077;-66
2023/12/15 05:05:36;;;;;;;51.78;15.20;;;8.10;99.90;;;;;;5094981;28;20043;-66
2023/12/15 05:08:01;;;;;;;44.80;15.68;;;8.10;99.90;;;;;;5094976;28;20033;-66
2023/12/15 05:10:27;;;;;;;47.58;16.55;;;8.10;99.90;;;;;;5094995;28;20032;-66
2023/12/15 05:12:53;;;;;;;41.30;13.70;;;8.10;99.90;;;;;;5094819;28;20058;-66
2023/12/15 05:15:18;;;;;;;44.67;14.25;;;8.10;99.90;;;;;;5094758;28;20116;-67
2023/12/15 05:17:44;;;;;;;52.13;15.60;;;8.10;99.90;;;;;;5094795;28;20058;-66
2023/12/15 05:20:10;;;;;;;46.17;15.35;;;8.00;99.90;;;;;;5094741;28;20039;-66
2023/12/15 05:22:36;;;;;;;36.33;13.32;;;8.10;99.90;;;;;;5094841;28;20422;-67
2023/12/15 05:25:02;;;;;;;41.80;14.77;;;8.10;99.90;;;;;;5094717;28;20033;-66
2023/12/15 05:27:27;;;;;;;46.05;14.07;;;8.10;99.90;;;;;;5094603;28;20092;-66
2023/12/15 05:29:53;;;;;;;46.17;16.30;;;8.10;99.90;;;;;;5093515;28;20045;-66
2023/12/15 05:32:18;;;;;;;49.10;15.02;;;8.10;99.90;;;;;;5094572;28;20529;-66
2023/12/15 05:34:44;;;;;;;49.03;13.75;;;8.10;99.90;;;;;;5094417;28;20028;-67
2023/12/15 05:37:10;;;;;;;49.13;14.93;;;8.20;99.90;;;;;;5094425;28;20029;-66
2023/12/15 05:39:36;;;;;;;48.83;14.90;;;8.20;99.90;;;;;;5094388;28;20076;-66
2023/12/15 05:42:01;;;;;;;37.10;13.02;;;8.20;99.90;;;;;;5094268;28;20036;-66
2023/12/15 05:44:28;;;;;;;41.10;14.45;;;8.20;99.90;;;;;;5094160;28;20053;-66
2023/12/15 05:46:54;;;;;;;47.30;15.48;;;8.20;99.90;;;;;;5094218;28;20051;-66
2023/12/15 05:49:19;;;;;;;54.70;16.00;;;8.20;99.90;;;;;;5094162;28;20036;-67
2023/12/15 05:51:48;;;;;;;46.60;15.32;;;8.20;99.90;;;;;;5094086;28;20028;-66
2023/12/15 05:54:14;;;;;;;43.70;14.70;;;8.20;99.90;;;;;;5094169;28;20053;-66
2023/12/15 05:56:40;;;;;;;51.70;16.33;;;8.20;99.90;;;;;;5094007;28;20055;-66
2023/12/15 05:59:05;;;;;;;47.30;14.45;;;8.20;99.90;;;;;;5093100;28;20013;-67
2023/12/15 06:01:31;;;;;;;54.22;15.68;;;8.20;99.90;;;;;;5093750;28;20479;-66
2023/12/15 06:03:57;;;;;;;45.13;14.40;;;8.20;99.90;;;;;;5093958;28;20055;-66
2023/12/15 06:06:23;;;;;;;51.25;16.17;;;8.20;99.90;;;;;;5093794;28;20020;-67
2023/12/15 06:08:48;;;;;;;50.05;15.20;;;8.30;99.90;;;;;;5093942;28;20024;-66
2023/12/15 06:11:14;;;;;;;48.65;16.27;;;8.30;99.90;;;;;;5093632;28;20027;-66
2023/12/15 06:13:41;;;;;;;56.10;16.80;;;8.30;99.90;;;;;;5093624;28;20044;-66
2023/12/15 06:16:07;;;;;;;47.97;15.20;;;8.30;99.90;;;;;;5093640;28;20021;-66
2023/12/15 06:18:33;;;;;;;47.92;16.98;;;8.30;99.90;;;;;;5093607;28;20043;-66
2023/12/15 06:20:58;;;;;;;42.92;15.75;;;8.40;99.90;;;;;;5093500;28;20025;-66
2023/12/15 06:23:24;;;;;;;54.90;15.82;;;8.30;99.90;;;;;;5093524;28;20025;-66
2023/12/15 06:25:50;;;;;;;52.40;15.73;;;8.40;99.90;;;;;;5093388;28;20029;-66
2023/12/15 06:28:15;;;;;;;43.47;15.25;;;8.40;99.90;;;;;;5093334;28;20025;-66
2023/12/15 06:30:41;;;;;;;49.65;15.95;;;8.40;99.90;;;;;;5093196;28;20410;-66
2023/12/15 06:33:07;;;;;;;62.65;18.08;;;8.40;99.90;;;;;;5093272;28;20033;-66
2023/12/15 06:35:33;;;;;;;56.63;17.00;;;8.40;99.90;;;;;;5093222;28;20051;-67
2023/12/15 06:37:59;;;;;;;53.72;15.98;;;8.40;99.90;;;;;;5093229;28;20086;-66
2023/12/15 06:40:25;;;;;;;43.53;14.98;;;8.40;99.90;;;;;;5093133;28;20111;-66
2023/12/15 06:42:50;;;;;;;45.88;14.70;;;8.40;99.90;;;;;;5093040;28;20016;-66
2023/12/15 06:45:16;;;;;;;55.55;17.42;;;8.40;99.90;;;;;;5092975;28;20053;-66
2023/12/15 06:47:42;;;;;;;58.42;16.00;;;8.50;99.90;;;;;;5093008;28;20041;-66
2023/12/15 06:50:08;;;;;;;54.83;17.10;;;8.50;99.90;;;;;;5093074;28;20040;-66
2023/12/15 06:52:35;;;;;;;49.83;15.90;;;8.40;99.90;;;;;;5092914;28;20021;-66
2023/12/15 06:55:02;;;;;;;44.90;16.05;;;8.50;99.90;;;;;;5092794;28;20021;-66
2023/12/15 06:57:28;;;;;;;53.17;16.08;;;8.50;99.90;;;;;;5092693;28;20063;-66
2023/12/15 06:59:54;;;;;;;61.13;17.48;;;8.50;99.90;;;;;;5091588;28;20438;-66
2023/12/15 07:02:19;;;;;;;49.63;16.48;;;8.50;99.90;;;;;;5092763;28;20019;-66
2023/12/15 07:04:45;;;;;;;55.92;16.17;;;8.40;99.90;;;;;;5092822;28;20103;-66
2023/12/15 07:07:11;;;;;;;54.83;17.73;;;8.40;99.90;;;;;;5092650;28;20027;-66
2023/12/15 07:09:37;;;;;;;56.70;17.50;;;8.40;99.90;;;;;;5092562;28;20036;-67
2023/12/15 07:12:03;;;;;;;59.03;16.67;;;8.50;99.90;;;;;;5092564;28;20055;-66
2023/12/15 07:14:29;;;;;;;56.50;17.05;;;8.40;99.90;;;;;;5091375;28;20040;-66
2023/12/15 07:16:55;;;;;;;64.70;17.55;;;8.40;99.90;;;;;;5092504;28;20046;-66
2023/12/15 07:19:20;;;;;;;54.92;17.15;;;8.40;99.90;;;;;;5092525;28;20029;-66
2023/12/15 07:21:47;;;;;;;55.88;17.60;;;8.50;99.90;;;;;;5092406;28;20020;-66
2023/12/15 07:24:13;;;;;;;54.65;16.05;;;8.50;99.90;;;;;;5092470;28;20054;-66
2023/12/15 07:26:38;;;;;;;62.65;17.38;;;8.50;99.90;;;;;;5092522;28;20064;-66
2023/12/15 07:29:07;;;;;;;59.58;17.15;;;8.40;99.90;;;;;;5092473;28;20024;-66
2023/12/15 07:31:34;;;;;;;56.65;18.17;;;8.50;99.90;;;;;;5092218;28;20028;-66
2023/12/15 07:33:59;;;;;;;50.45;15.63;;;8.40;99.90;;;;;;5091388;28;20029;-66
2023/12/15 07:36:25;;;;;;;61.17;18.38;;;8.50;99.90;;;;;;5092283;28;20033;-66
2023/12/15 07:38:50;;;;;;;58.10;18.23;;;8.50;99.90;;;;;;5092233;28;20036;-66
2023/12/15 07:41:16;;;;;;;53.65;17.23;;;8.50;99.90;;;;;;5092257;28;20040;-66
2023/12/15 07:43:41;;;;;;;54.35;17.38;;;8.50;99.90;;;;;;5092274;28;20020;-66
2023/12/15 07:46:18;;;;;;;47.63;17.08;;;8.50;99.90;;;;;;5092035;28;20060;-66
2023/12/15 07:48:44;;;;;;;60.72;19.08;;;8.60;99.90;;;;;;5092248;28;20063;-65
2023/12/15 07:51:19;;;;;;;54.05;16.25;;;8.50;99.90;;;;;;5092139;28;20032;-67
2023/12/15 07:53:48;;;;;;;63.03;17.45;;;8.60;99.90;;;;;;5091632;28;20021;-67
2023/12/15 07:56:25;;;;;;;49.90;18.08;;;8.50;99.90;;;;;;5092209;28;20020;-66
2023/12/15 07:58:52;;;;;;;58.65;16.63;;;8.60;99.90;;;;;;5092182;28;20467;-66
2023/12/15 08:01:21;;;;;;;64.05;18.73;;;8.60;99.90;;;;;;5091975;28;20466;-66
2023/12/15 08:03:47;;;;;;;65.63;18.00;;;8.60;99.90;;;;;;5092038;28;20025;-65
2023/12/15 08:06:15;;;;;;;62.42;17.38;;;8.50;99.90;;;;;;5092128;28;20029;-65
2023/12/15 08:08:41;;;;;;;57.15;18.67;;;8.50;99.90;;;;;;5092034;28;20025;-66
2023/12/15 08:11:07;;;;;;;61.95;18.48;;;8.50;99.90;;;;;;5091946;28;20016;-66
2023/12/15 08:13:33;;;;;;;54.10;16.92;;;8.60;99.90;;;;;;5091904;28;20013;-66
2023/12/15 08:15:58;;;;;;;55.35;18.95;;;8.60;99.90;;;;;;5091721;28;20035;-66
2023/12/15 08:18:24;;;;;;;62.33;19.65;;;8.60;99.90;;;;;;5091806;28;20024;-66
2023/12/15 08:20:50;;;;;;;57.85;18.27;;;8.60;99.90;;;;;;5098725;28;20073;-66
2023/12/15 08:23:16;;;;;;;62.95;19.77;;;8.60;99.90;;;;;;5110546;28;20486;-66
2023/12/15 08:25:42;;;;;;;68.60;19.92;;;8.60;99.90;;;;;;5111018;28;20285;-66
2023/12/15 08:28:10;;;;;;;50.63;16.48;;;8.60;99.90;;;;;;5111480;28;20100;-66
2023/12/15 08:30:35;;;;;;;69.32;18.73;;;8.60;99.90;;;;;;5111053;28;20024;-66
2023/12/15 08:33:01;;;;;;;62.30;19.00;;;8.60;99.90;;;;;;5110986;28;20020;-66
2023/12/15 08:35:27;;;;;;;54.22;18.65;;;8.60;99.90;;;;;;5111887;28;20020;-66
2023/12/15 08:37:54;;;;;;;52.42;17.38;;;8.70;99.90;;;;;;5112008;28;20055;-66
2023/12/15 08:40:20;;;;;;;49.88;17.83;;;8.70;99.90;;;;;;5111943;28;20084;-66
2023/12/15 08:42:46;;;;;;;57.17;17.55;;;8.70;99.90;;;;;;5111920;28;20024;-66
2023/12/15 08:45:11;;;;;;;65.97;20.08;;;8.70;99.90;;;;;;5111828;28;20043;-66
2023/12/15 08:47:37;;;;;;;55.45;17.52;;;8.70;99.90;;;;;;5111823;28;20025;-66
2023/12/15 08:50:04;;;;;;;55.00;18.67;;;8.80;99.90;;;;;;5112022;28;20485;-66
2023/12/15 08:52:29;;;;;;;49.08;16.77;;;8.80;99.90;;;;;;5111901;28;20119;-66
2023/12/15 08:54:55;;;;;;;53.90;16.73;;;8.80;99.90;;;;;;5111852;28;20028;-66
2023/12/15 08:57:21;;;;;;;55.08;17.95;;;8.80;99.90;;;;;;5111869;28;20080;-66
2023/12/15 08:59:47;;;;;;;61.97;18.52;;;8.80;99.90;;;;;;5111650;28;20032;-66
2023/12/15 09:02:13;;;;;;;53.00;16.38;;;8.80;99.90;;;;;;5111684;28;20024;-66
2023/12/15 09:04:38;;;;;;;51.08;18.20;;;8.80;99.90;;;;;;5111972;28;20036;-66
2023/12/15 09:07:07;;;;;;;56.38;16.80;;;8.90;99.90;;;;;;5115377;28;20055;-66
2023/12/15 09:09:34;;;;;;;45.50;17.40;;;8.90;99.90;;;;;;5115446;28;20028;-66
2023/12/15 09:12:00;;;;;;;52.47;17.35;;;8.90;99.90;;;;;;5115260;28;20048;-66
2023/12/15 09:14:26;;;;;;;51.45;16.63;;;8.90;99.90;;;;;;5115166;28;20028;-66
2023/12/15 09:16:52;;;;;;;49.83;18.48;;;8.90;99.90;;;;;;5114022;28;20027;-67
2023/12/15 09:19:18;;;;;;;68.43;16.90;;;8.90;99.90;;;;;;5114090;28;20020;-66
2023/12/15 09:21:43;;;;;;;47.03;17.30;;;9.00;99.90;;;;;;5114982;28;20024;-66
2023/12/15 09:24:09;;;;;;;59.78;18.92;;;9.00;99.90;;;;;;5115123;28;20039;-67
2023/12/15 09:26:35;;;;;;;48.13;17.38;;;9.00;99.90;;;;;;5115021;28;20035;-66
2023/12/15 09:29:00;;;;;;;58.08;18.60;;;9.00;99.90;;;;;;5114943;28;20028;-67
2023/12/15 09:31:26;;;;;;;57.05;17.70;;;9.00;99.90;;;;;;5114627;28;20070;-66
2023/12/15 09:33:52;;;;;;;63.03;19.25;;;9.10;99.90;;;;;;5114810;28;20060;-66
2023/12/15 09:36:17;;;;;;;54.42;18.23;;;9.10;99.90;;;;;;5114873;28;20028;-66
2023/12/15 09:38:43;;;;;;;51.33;17.50;;;9.10;99.90;;;;;;5114773;28;20035;-66
2023/12/15 09:41:09;;;;;;;58.78;18.38;;;9.10;99.90;;;;;;5113804;28;20077;-66
2023/12/15 09:43:35;;;;;;;51.80;20.17;;;9.10;99.90;;;;;;5114709;28;20051;-66
2023/12/15 09:46:04;;;;;;;58.17;19.60;;;9.10;99.90;;;;;;5114367;28;20044;-66
2023/12/15 09:48:31;;;;;;;49.08;17.67;;;9.20;99.90;;;;;;5114619;28;20058;-66
2023/12/15 09:51:02;;;;;;;51.25;19.70;;;9.20;99.90;;;;;;5114659;28;20038;-66
2023/12/15 09:53:32;;;;;;;55.33;18.98;;;9.20;99.90;;;;;;5113429;28;20027;-66
2023/12/15 09:55:58;;;;;;;62.33;20.05;;;9.20;99.90;;;;;;5114458;28;20078;-66
2023/12/15 09:58:24;;;;;;;54.28;20.20;;;9.20;99.90;;;;;;5114321;28;20028;-66
2023/12/15 10:00:50;;;;;;;57.72;16.83;;;9.20;99.90;;;;;;5114245;28;20024;-66
2023/12/15 10:03:16;;;;;;;59.15;19.17;;;9.30;99.90;;;;;;5114311;28;20020;-66
2023/12/15 10:05:42;;;;;;;49.22;17.67;;;9.30;99.90;;;;;;5114271;28;20032;-67
2023/12/15 10:08:07;;;;;;;55.00;21.15;;;9.30;99.90;;;;;;5113132;28;20044;-66
2023/12/15 10:10:34;;;;;;;70.03;24.27;;;9.30;99.90;;;;;;5114236;28;20036;-66
2023/12/15 10:13:01;;;;;;;66.43;21.00;;;9.30;99.90;;;;;;5113957;28;20028;-66
2023/12/15 10:15:27;;;;;;;51.75;19.40;;;9.30;99.90;;;;;;5113653;28;20020;-66
2023/12/15 10:17:54;;;;;;;57.45;20.85;;;9.40;99.90;;;;;;5113894;28;20016;-66
2023/12/15 10:20:20;;;;;;;54.10;19.60;;;9.40;99.90;;;;;;5113870;28;20035;-67
2023/12/15 10:22:47;;;;;;;62.67;21.17;;;9.40;99.90;;;;;;5113953;28;20044;-66
2023/12/15 10:25:32;;;;;;;50.72;18.55;;;9.40;99.90;;;;;;5113892;28;20028;-67
2023/12/15 10:27:58;;;;;;;59.70;19.73;;;9.40;99.90;;;;;;5113791;28;20024;-66
2023/12/15 10:30:24;;;;;;;45.70;16.60;;;9.50;99.90;;;;;;5113608;28;20035;-66
2023/12/15 10:32:53;;;;;;;53.45;21.67;;;9.50;99.90;;;;;;5113749;28;20335;-66
2023/12/15 10:35:21;;;;;;;65.32;24.20;;;9.50;99.90;;;;;;5113630;28;20105;-66
2023/12/15 10:37:47;;;;;;;61.20;23.48;;;9.50;99.90;;;;;;5113528;28;20020;-66
2023/12/15 10:40:13;;;;;;;58.38;20.33;;;9.50;99.90;;;;;;5113592;28;20587;-66
2023/12/15 10:42:41;;;;;;;38.95;16.60;;;9.50;99.90;;;;;;5113605;28;20028;-66
2023/12/15 10:45:08;;;;;;;50.97;20.70;;;9.50;99.90;;;;;;5113431;28;20050;-66
2023/12/15 10:47:34;;;;;;;51.78;18.48;;;9.50;99.90;;;;;;5113350;28;20040;-66
2023/12/15 10:50:02;;;;;;;51.63;22.17;;;9.50;99.90;;;;;;5113578;28;20076;-66
2023/12/15 10:52:27;;;;;;;49.55;16.73;;;9.50;99.90;;;;;;5113241;28;20048;-66
2023/12/15 10:54:55;;;;;;;64.53;23.92;;;9.40;99.90;;;;;;5113227;28;20036;-66
2023/12/15 10:57:21;;;;;;;53.35;17.08;;;9.50;99.90;;;;;;5113263;28;20012;-66
2023/12/15 10:59:48;;;;;;;54.67;21.52;;;9.50;99.90;;;;;;5113063;28;20025;-66
2023/12/15 11:02:18;;;;;;;52.67;19.20;;;9.50;99.90;;;;;;5113065;28;20044;-66
2023/12/15 11:04:46;;;;;;;59.78;22.02;;;9.50;99.90;;;;;;5113156;28;20020;-66
2023/12/15 11:07:12;;;;;;;46.63;18.67;;;9.50;99.90;;;;;;5113034;28;20020;-66
2023/12/15 11:09:38;;;;;;;47.15;18.05;;;9.50;99.90;;;;;;5113056;28;20185;-66
2023/12/15 11:12:22;;;;;;;42.28;18.55;;;9.50;99.90;;;;;;5111935;28;20024;-66
2023/12/15 11:14:57;;;;;;;41.85;14.55;;;9.60;99.90;;;;;;5112824;28;20024;-66
2023/12/15 11:17:23;;;;;;;38.60;15.30;;;9.60;99.90;;;;;;5112656;28;20032;-65
2023/12/15 11:19:53;;;;;;;48.25;16.73;;;9.60;99.90;;;;;;5112754;28;20049;-65
2023/12/15 11:22:20;;;;;;;40.65;14.65;;;9.60;99.90;;;;;;5112767;28;20080;-66
2023/12/15 11:24:46;;;;;;;37.00;14.75;;;9.60;99.90;;;;;;5112865;28;20083;-66
2023/12/15 11:27:13;;;;;;;40.42;13.80;;;9.60;99.90;;;;;;5112328;28;20032;-65
2023/12/15 11:29:40;;;;;;;35.03;14.68;;;9.70;99.90;;;;;;5112296;28;20028;-65
2023/12/15 11:32:33;;;;;;;35.72;14.23;;;9.70;99.90;;;;;;5112540;28;20045;-66
2023/12/15 11:34:59;;;;;;;;;;;9.70;99.90;;;;;;5113097;28;20031;-65
2023/12/15 11:37:26;;;;;;;40.38;12.90;;;9.70;99.90;;;;;;5112672;28;19904;-66
2023/12/15 11:39:54;;;;;;;36.88;13.52;;;9.70;99.90;;;;;;5112756;28;20031;-66
2023/12/15 11:42:20;;;;;;;34.00;13.25;;;9.70;99.90;;;;;;5112476;28;20016;-66
2023/12/15 11:44:46;;;;;;;35.20;12.32;;;9.80;99.90;;;;;;5112510;28;20020;-66
2023/12/15 11:47:12;;;;;;;31.85;12.05;;;9.80;99.90;;;;;;5112300;28;20040;-67
2023/12/15 11:49:42;;;;;;;36.35;12.93;;;9.80;99.90;;;;;;5112525;28;20032;-66
2023/12/15 11:52:10;;;;;;;37.22;11.02;;;9.80;99.90;;;;;;5112366;28;20028;-65
2023/12/15 11:54:36;;;;;;;35.75;11.82;;;9.80;99.90;;;;;;5112328;28;20036;-67
2023/12/15 11:57:05;;;;;;;33.85;12.55;;;9.80;99.90;;;;;;5112260;28;20028;-66
2023/12/15 11:59:44;;;;;;;28.27;11.48;;;9.80;99.90;;;;;;5112159;28;20046;-65
2023/12/15 12:02:16;;;;;;;29.52;10.93;;;9.90;99.90;;;;;;5112369;28;20039;-65
2023/12/15 12:04:48;;;;;;;29.02;9.95;;;10.00;99.90;;;;;;5112531;28;20024;-66
2023/12/15 12:07:14;;;;;;;29.48;10.55;;;10.00;99.90;;;;;;5112299;28;20024;-66
2023/12/15 12:09:40;;;;;;;29.92;9.73;;;10.00;99.90;;;;;;5112275;28;20024;-66
2023/12/15 12:12:07;;;;;;;30.75;10.85;;;10.00;99.90;;;;;;5112267;28;20488;-65
2023/12/15 12:14:33;;;;;;;30.88;10.45;;;10.00;99.90;;;;;;5112163;28;20016;-66
2023/12/15 12:16:59;;;;;;;24.30;9.40;;;10.10;99.90;;;;;;5112225;28;20024;-66
2023/12/15 12:19:24;;;;;;;22.60;9.93;;;10.10;99.90;;;;;;5112342;28;20029;-66
2023/12/15 12:21:52;;;;;;;26.10;10.15;;;10.10;99.90;;;;;;5112064;28;20043;-66
2023/12/15 12:24:21;;;;;;;26.92;9.88;;;10.10;99.90;;;;;;5112105;28;20046;-65
2023/12/15 12:26:51;;;;;;;25.02;9.60;;;10.10;99.90;;;;;;5112196;28;20032;-66
2023/12/15 12:29:16;;;;;;;21.60;9.43;;;10.20;99.90;;;;;;5112301;28;20024;-66
2023/12/15 12:31:42;;;;;;;19.20;8.75;;;10.20;99.90;;;;;;5111833;28;20066;-66
2023/12/15 12:34:08;;;;;;;22.90;8.43;;;10.20;99.90;;;;;;5111975;28;20043;-66